Detall de PIREP

Printer-friendly versionPDF version

[2010/09/20 08:11:00]
Flight IATA:CT3112
Pilot Number:011
Company ICAO:CAT
Aircraft Type:F50/A
PAX:50
Aircraft Registration:DREAMWINGS
Departing Airport: LEBL
Destination Airport: LFMP
Alternate Airport:LFBO
Online: VATSIM
Route:DALIN A67 BGR/N0300F180 A27 KANIG
Flight Level:FL180
No Slew and time accel
No pause
Crash detect
Detect pilot in Cockpit between each 30 and 45 minutes
08:11 Zero fuel Weight: 42193 Lbs, Fuel Weight: 2087 Lbs
08:11 VATSIM:LEBL 200800Z 32009KT 290V360 9999 BKN022 18/14 Q1018 NOSIG
08:11 VATSIM:LFMP 200800Z VRB02KT 9999 FEW033 18/09 Q1018
08:17 Parking Brakes off
08:33 Take-off
08:33 Take off Weight: 44127 Lbs
08:33 Wind: 325º @ 009 Knots Heading: 011º
08:33 POS N41º 17´ 39´´ E002º 05´ 16´´
08:33 Flaps:3 at 121 Knots
08:33 Gear Up: 120 Knots
08:35 Flaps:2 at 158 Knots
08:35 Flaps:1 at 151 Knots
08:35 Flaps:0 at 149 Knots
08:46 TOC
08:46 Fuel Weight: 1541 Lb
08:48 Wind:000º@009 Knots Heading: 064º Ground Speed: 260 Knots Altitude 18136 ft
08:52 TOD
08:52 Fuel Weight: 1383 Lb
09:03 Wind:076º@009 Knots Heading: 347º Ground Speed: 178 Knots Altitude 8110 ft
09:08 Flaps:1 at 166 Knots
09:09 Flaps:2 at 154 Knots
09:09 Flaps:3 at 134 Knots
09:10 Flaps:4 at 125 Knots
09:10 Gear Down: 126 Knots
09:11 Flaps:5 at 137 Knots
09:12 Flaps:6 at 128 Knots
09:15 TouchDown:Rate -159 ft/min Speed: 88 Knots
09:15 Flaps:0 at 74 Knots
09:16 VATSIM:LFMP 200900Z 06005KT 340V110 9999 FEW033 SCT250 19/12 Q1018
09:16 Land
09:16 Wind:087º@005 Knots
09:16 Heading: 324º
09:16 Flight Duration: 00:43
09:16 Landing Weight: 43355 Lbs
09:16 POS N42º 44´ 58´´ E002º 51´ 55´´
09:19 Parking brakes on
09:19 Block to Block Duration: 01:02
09:19 Final Fuel: 1133 Lbls
09:19 Spent Fuel: 954 Lbls
09:19 Flight Length: 141 NM
09:19 TOD Land Length: 69 NM

Exportar CSV

Powered by Drupal - Modified by Danger4k